| time (UTC) | temp C | wind direction | speed KPH | gust KPH | rain 1hr cm | rain 24hr cm | rain mn cm | humidity % | barometer mb |
| 20260510234525 | 9 | 157 | 8.0 | 12.9 | 0.00 | 0.28 | 0.00 | 84 | 1012.6 |
| 20260510233023 | 9 | 158 | 4.8 | 11.3 | 0.00 | 0.28 | 0.00 | 83 | 1012.4 |
| 20260510231520 | 9 | 161 | 6.4 | 11.3 | 0.00 | 0.28 | 0.00 | 82 | 1012.3 |
| 20260510230018 | 10 | 182 | 4.8 | 11.3 | 0.00 | 0.33 | 0.00 | 81 | 1012.1 |
| 20260510224526 | 10 | 180 | 8.0 | 11.3 | 0.00 | 0.33 | 0.00 | 81 | 1012.0 |
| 20260510223013 | 10 | 174 | 1.6 | 4.8 | 0.00 | 0.33 | 0.00 | 80 | 1011.9 |
| 20260510221515 | 10 | 174 | 3.2 | 6.4 | 0.00 | 0.33 | 0.00 | 80 | 1011.9 |
| 20260510220011 | 10 | 174 | 4.8 | 9.7 | 0.00 | 0.48 | 0.33 | 79 | 1011.8 |
| 20260510214508 | 10 | 174 | 3.2 | 8.0 | 0.00 | 0.48 | 0.33 | 80 | 1011.8 |
| 20260510213008 | 10 | 174 | 3.2 | 6.4 | 0.00 | 0.48 | 0.33 | 79 | 1011.7 |
| 20260510211508 | 10 | 174 | 3.2 | 6.4 | 0.00 | 0.48 | 0.33 | 78 | 1011.7 |
| 20260510210006 | 11 | 175 | 6.4 | 11.3 | 0.00 | 0.51 | 0.33 | 77 | 1011.6 |
| 20260510204506 | 11 | 182 | 8.0 | 17.7 | 0.00 | 0.51 | 0.33 | 75 | 1011.5 |
| 20260510203006 | 12 | 267 | 1.6 | 4.8 | 0.00 | 0.51 | 0.33 | 71 | 1011.2 |
| 20260510201505 | 12 | 267 | 0.0 | 1.6 | 0.00 | 0.51 | 0.33 | 69 | 1011.1 |
| 20260510200005 | 12 | 267 | 1.6 | 3.2 | 0.00 | 0.51 | 0.33 | 68 | 1010.8 |
| 20260510194504 | 12 | 267 | 1.6 | 4.8 | 0.00 | 0.51 | 0.33 | 68 | 1010.8 |
| 20260510193005 | 12 | 267 | 0.0 | 3.2 | 0.00 | 0.51 | 0.33 | 68 | 1010.7 |
| 20260510191504 | 13 | 267 | 1.6 | 4.8 | 0.00 | 0.51 | 0.33 | 67 | 1010.6 |
| 20260510190003 | 13 | 265 | 1.6 | 9.7 | 0.00 | 0.51 | 0.33 | 65 | 1010.5 |
| 20260510184502 | 13 | 277 | 1.6 | 9.7 | 0.00 | 0.51 | 0.33 | 64 | 1010.4 |
| 20260510183001 | 14 | 279 | 3.2 | 12.9 | 0.00 | 0.51 | 0.33 | 63 | 1010.3 |
| 20260510181502 | 14 | 273 | 3.2 | 12.9 | 0.00 | 0.51 | 0.33 | 62 | 1010.3 |
| 20260510180001 | 13 | 225 | 6.4 | 16.1 | 0.00 | 0.51 | 0.33 | 64 | 1010.1 |
| 20260510174501 | 13 | 262 | 4.8 | 14.5 | 0.00 | 0.51 | 0.33 | 63 | 1010.4 |
| 20260510173001 | 14 | 281 | 6.4 | 27.4 | 0.00 | 0.51 | 0.33 | 58 | 1010.2 |
| 20260510171605 | 15 | 232 | 11.3 | 24.1 | 0.00 | 0.51 | 0.33 | 52 | 1010.1 |
| 20260510170116 | 15 | 243 | 9.7 | 22.5 | 0.00 | 0.51 | 0.33 | 53 | 1009.8 |
| 20260510164607 | 15 | 227 | 9.7 | 24.1 | 0.00 | 0.51 | 0.33 | 53 | 1009.8 |
| 20260510163059 | 14 | 248 | 12.9 | 25.7 | 0.00 | 0.51 | 0.33 | 55 | 1009.9 |
| 20260510161558 | 14 | 286 | 14.5 | 32.2 | 0.00 | 0.51 | 0.33 | 61 | 1009.6 |
| 20260510160106 | 14 | 313 | 8.0 | 19.3 | 0.00 | 0.51 | 0.33 | 64 | 1009.3 |
| 20260510154617 | 13 | 263 | 8.0 | 20.9 | 0.00 | 0.51 | 0.33 | 63 | 1009.5 |
| 20260510153057 | 13 | 298 | 9.7 | 29.0 | 0.00 | 0.51 | 0.33 | 63 | 1009.6 |
| 20260510151556 | 15 | 244 | 11.3 | 29.0 | 0.00 | 0.51 | 0.33 | 50 | 1008.9 |
| 20260510150053 | 15 | 211 | 8.0 | 24.1 | 0.03 | 0.51 | 0.33 | 54 | 1008.9 |
| 20260510144549 | 14 | 201 | 14.5 | 24.1 | 0.03 | 0.51 | 0.33 | 60 | 1009.3 |
| 20260510143051 | 14 | 217 | 17.7 | 32.2 | 0.03 | 0.51 | 0.33 | 63 | 1009.7 |
| 20260510141545 | 13 | 210 | 12.9 | 32.2 | 0.03 | 0.51 | 0.33 | 72 | 1009.8 |
| 20260510140046 | 13 | 210 | 11.3 | 22.5 | 0.00 | 0.51 | 0.30 | 67 | 1010.0 |
| 20260510134545 | 13 | 192 | 14.5 | 35.4 | 0.00 | 0.51 | 0.30 | 63 | 1009.7 |
| 20260510133045 | 13 | 203 | 19.3 | 35.4 | 0.00 | 0.51 | 0.30 | 65 | 1009.7 |
| 20260510131543 | 13 | 171 | 14.5 | 22.5 | 0.00 | 0.51 | 0.30 | 65 | 1009.9 |
| 20260510130142 | -17 | 0.0 | 0.0 | 0.00 | 0.51 | 0.30 | 1010.1 | ||
| 20260510124642 | -17 | 0.0 | 0.0 | 0.00 | 0.51 | 0.30 | 1010.3 | ||
| 20260510123118 | -17 | 0.0 | 0.0 | 0.00 | 0.51 | 0.30 | 1010.4 | ||
| 20260510120131 | 12 | 182 | 16.1 | 30.6 | 0.00 | 0.51 | 0.30 | 71 | 1010.3 |
| 20260510114634 | 11 | 213 | 16.1 | 27.4 | 0.00 | 0.51 | 0.30 | 78 | 1010.6 |
| 20260510113125 | 10 | 182 | 14.5 | 22.5 | 0.03 | 0.51 | 0.30 | 80 | 1010.5 |
| 20260510111632 | 9 | 187 | 12.9 | 17.7 | 0.05 | 0.51 | 0.30 | 83 | 1010.6 |
| 20260510110132 | 8 | 153 | 3.2 | 11.3 | 0.05 | 0.51 | 0.30 | 85 | 1010.7 |
| 20260510104622 | 8 | 207 | 8.0 | 22.5 | 0.15 | 0.51 | 0.30 | 85 | 1011.2 |
| 20260510103132 | 8 | 232 | 3.2 | 22.5 | 0.13 | 0.48 | 0.28 | 86 | 1011.4 |
| 20260510101649 | 9 | 250 | 12.9 | 22.5 | 0.08 | 0.43 | 0.23 | 85 | 1011.4 |
| 20260510100107 | 10 | 269 | 20.9 | 43.5 | 0.08 | 0.43 | 0.23 | 82 | 1010.9 |
| 20260510094559 | 11 | 180 | 20.9 | 29.0 | 0.03 | 0.36 | 0.15 | 79 | 1010.5 |
| 20260510093058 | 11 | 196 | 17.7 | 25.7 | 0.03 | 0.36 | 0.15 | 77 | 1010.1 |
| 20260510091604 | 11 | 173 | 14.5 | 32.2 | 0.03 | 0.36 | 0.15 | 76 | 1009.9 |
| 20260510090107 | 11 | 182 | 14.5 | 19.3 | 0.00 | 0.33 | 0.15 | 76 | 1009.8 |
| 20260510084600 | 11 | 184 | 8.0 | 16.1 | 0.00 | 0.33 | 0.15 | 77 | 1009.8 |
| 20260510083103 | 11 | 183 | 9.7 | 22.5 | 0.00 | 0.33 | 0.15 | 78 | 1009.9 |
| 20260510081551 | 11 | 184 | 4.8 | 12.9 | 0.00 | 0.33 | 0.15 | 82 | 1009.8 |
| 20260510080057 | 11 | 178 | 8.0 | 17.7 | 0.00 | 0.36 | 0.15 | 84 | 1010.0 |
| 20260510074549 | 10 | 151 | 6.4 | 12.9 | 0.00 | 0.36 | 0.15 | 87 | 1010.1 |
| 20260510073048 | 10 | 179 | 8.0 | 14.5 | 0.00 | 0.36 | 0.15 | 87 | 1010.1 |
| 20260510071548 | 10 | 165 | 11.3 | 17.7 | 0.00 | 0.36 | 0.15 | 89 | 1010.2 |
| 20260510070049 | 9 | 170 | 9.7 | 16.1 | 0.00 | 0.36 | 0.15 | 90 | 1010.0 |
| 20260510064605 | 9 | 163 | 8.0 | 16.1 | 0.00 | 0.36 | 0.15 | 90 | 1009.9 |
| 20260510063048 | 8 | 177 | 4.8 | 14.5 | 0.00 | 0.36 | 0.15 | 91 | 1010.0 |
| 20260510061550 | 8 | 156 | 3.2 | 8.0 | 0.00 | 0.36 | 0.15 | 91 | 1010.0 |
| 20260510060044 | 8 | 155 | 3.2 | 9.7 | 0.00 | 0.36 | 0.15 | 91 | 1010.0 |
| 20260510054544 | 8 | 158 | 0.0 | 8.0 | 0.00 | 0.36 | 0.15 | 92 | 1010.0 |
| 20260510053044 | 8 | 173 | 1.6 | 9.7 | 0.00 | 0.36 | 0.15 | 92 | 1009.9 |
| 20260510051544 | 8 | 165 | 0.0 | 0.0 | 0.00 | 0.36 | 0.15 | 92 | 1009.8 |
| 20260510050042 | 8 | 165 | 0.0 | 8.0 | 0.00 | 0.38 | 0.15 | 92 | 1010.0 |
| 20260510044545 | 8 | 165 | 3.2 | 9.7 | 0.00 | 0.38 | 0.15 | 92 | 1010.0 |
| 20260510043040 | 8 | 167 | 6.4 | 12.9 | 0.00 | 0.38 | 0.15 | 92 | 1010.0 |
| 20260510041539 | 8 | 179 | 9.7 | 14.5 | 0.00 | 0.38 | 0.15 | 92 | 1010.0 |
| 20260510040037 | 8 | 167 | 4.8 | 9.7 | 0.00 | 0.38 | 0.15 | 92 | 1010.0 |
| 20260510034539 | 8 | 167 | 3.2 | 8.0 | 0.00 | 0.38 | 0.15 | 92 | 1010.1 |
| 20260510033035 | 8 | 167 | 0.0 | 8.0 | 0.00 | 0.38 | 0.15 | 92 | 1010.1 |
| 20260510031537 | 8 | 167 | 8.0 | 11.3 | 0.00 | 0.38 | 0.15 | 92 | 1010.1 |
| 20260510030034 | 8 | 155 | 4.8 | 9.7 | 0.00 | 0.38 | 0.15 | 92 | 1010.2 |
| 20260510024539 | 8 | 169 | 9.7 | 16.1 | 0.00 | 0.38 | 0.15 | 91 | 1010.2 |
| 20260510023031 | 8 | 175 | 6.4 | 12.9 | 0.00 | 0.38 | 0.15 | 91 | 1010.1 |
| 20260510021529 | 8 | 166 | 3.2 | 11.3 | 0.00 | 0.38 | 0.15 | 91 | 1010.1 |
| 20260510020029 | 8 | 146 | 3.2 | 8.0 | 0.00 | 0.38 | 0.15 | 91 | 1010.3 |
| 20260510014531 | 8 | 141 | 3.2 | 6.4 | 0.00 | 0.38 | 0.15 | 91 | 1010.3 |
| 20260510013028 | 8 | 140 | 1.6 | 8.0 | 0.00 | 0.38 | 0.15 | 91 | 1010.2 |
| 20260510011527 | 8 | 178 | 4.8 | 12.9 | 0.00 | 0.38 | 0.15 | 90 | 1010.4 |
| 20260510010025 | 8 | 170 | 9.7 | 14.5 | 0.03 | 0.38 | 0.15 | 90 | 1010.5 |
| 20260510004523 | 9 | 168 | 8.0 | 12.9 | 0.03 | 0.38 | 0.15 | 90 | 1010.5 |
| 20260510003022 | 9 | 169 | 4.8 | 9.7 | 0.05 | 0.38 | 0.15 | 89 | 1010.5 |
| 20260510001521 | 9 | 172 | 0.0 | 8.0 | 0.10 | 0.38 | 0.15 | 89 | 1010.3 |
| 20260510000020 | 9 | 173 | 8.0 | 14.5 | 0.08 | 0.36 | 0.13 | 88 | 1010.7 |